sensor_id;sensor_type;location;lat;lon;timestamp;P1;P2;P0
13030;PMS7003;6582;54.644;9.760;2023-05-01T00:25:01;1.9;1.9;
13030;PMS7003;6582;54.644;9.760;2023-05-01T00:30:01;2.8;2.8;
13030;PMS7003;6582;54.644;9.760;2023-05-01T00:35:01;3.0;3.0;
13030;PMS7003;6582;54.644;9.760;2023-05-01T00:45:01;3.0;3.0;
13030;PMS7003;6582;54.644;9.760;2023-05-01T00:50:01;1.4;1.4;
13030;PMS7003;6582;54.644;9.760;2023-05-01T00:55:01;0.5;0.5;
13030;PMS7003;6582;54.644;9.760;2023-05-01T01:20:07;0.2;0.2;
13030;PMS7003;6582;54.644;9.760;2023-05-01T01:30:07;0.2;0.2;
13030;PMS7003;6582;54.644;9.760;2023-05-01T01:40:04;0.1;0.1;
13030;PMS7003;6582;54.644;9.760;2023-05-01T05:10:08;0.1;0.1;
13030;PMS7003;6582;54.644;9.760;2023-05-01T05:15:07;0.9;0.9;
13030;PMS7003;6582;54.644;9.760;2023-05-01T05:20:03;4.5;4.5;
13030;PMS7003;6582;54.644;9.760;2023-05-01T05:25:02;4.6;4.6;
13030;PMS7003;6582;54.644;9.760;2023-05-01T05:30:02;4.6;4.6;
13030;PMS7003;6582;54.644;9.760;2023-05-01T05:40:01;3.8;3.8;
13030;PMS7003;6582;54.644;9.760;2023-05-01T05:50:02;3.6;3.6;
13030;PMS7003;6582;54.644;9.760;2023-05-01T05:55:07;6.5;6.5;
13030;PMS7003;6582;54.644;9.760;2023-05-01T06:00:07;8.2;8.2;
13030;PMS7003;6582;54.644;9.760;2023-05-01T06:05:02;10.1;10.1;
13030;PMS7003;6582;54.644;9.760;2023-05-01T06:10:01;13.2;13.2;
13030;PMS7003;6582;54.644;9.760;2023-05-01T06:15:02;9.8;9.8;
13030;PMS7003;6582;54.644;9.760;2023-05-01T06:20:02;7.4;7.4;
13030;PMS7003;6582;54.644;9.760;2023-05-01T06:25:02;6.0;6.0;
13030;PMS7003;6582;54.644;9.760;2023-05-01T06:30:01;9.0;9.0;
13030;PMS7003;6582;54.644;9.760;2023-05-01T06:35:07;8.2;8.1;
13030;PMS7003;6582;54.644;9.760;2023-05-01T06:40:05;9.9;9.9;
13030;PMS7003;6582;54.644;9.760;2023-05-01T06:45:02;10.0;10.0;
13030;PMS7003;6582;54.644;9.760;2023-05-01T06:50:07;12.1;12.1;
13030;PMS7003;6582;54.644;9.760;2023-05-01T06:55:03;8.1;8.1;
13030;PMS7003;6582;54.644;9.760;2023-05-01T07:00:01;6.5;6.5;
13030;PMS7003;6582;54.644;9.760;2023-05-01T07:05:02;5.0;5.0;
13030;PMS7003;6582;54.644;9.760;2023-05-01T07:10:02;4.7;4.7;
13030;PMS7003;6582;54.644;9.760;2023-05-01T07:15:02;2.3;2.3;
13030;PMS7003;6582;54.644;9.760;2023-05-01T07:20:01;3.5;3.5;
13030;PMS7003;6582;54.644;9.760;2023-05-01T07:25:01;6.8;6.8;
13030;PMS7003;6582;54.644;9.760;2023-05-01T07:30:06;13.4;13.3;
13030;PMS7003;6582;54.644;9.760;2023-05-01T07:35:01;16.8;16.7;
13030;PMS7003;6582;54.644;9.760;2023-05-01T07:40:01;17.0;16.9;
13030;PMS7003;6582;54.644;9.760;2023-05-01T07:45:02;19.8;19.6;
13030;PMS7003;6582;54.644;9.760;2023-05-01T07:50:02;25.8;24.3;
13030;PMS7003;6582;54.644;9.760;2023-05-01T07:55:02;28.0;25.8;
13030;PMS7003;6582;54.644;9.760;2023-05-01T08:00:01;33.5;30.4;
13030;PMS7003;6582;54.644;9.760;2023-05-01T08:05:02;42.4;38.4;
13030;PMS7003;6582;54.644;9.760;2023-05-01T08:10:03;51.1;44.8;
13030;PMS7003;6582;54.644;9.760;2023-05-01T08:15:01;53.7;46.6;
13030;PMS7003;6582;54.644;9.760;2023-05-01T08:20:02;57.5;49.1;
13030;PMS7003;6582;54.644;9.760;2023-05-01T08:25:03;58.4;50.4;
13030;PMS7003;6582;54.644;9.760;2023-05-01T08:30:01;65.4;56.5;
13030;PMS7003;6582;54.644;9.760;2023-05-01T08:35:01;65.0;56.3;
13030;PMS7003;6582;54.644;9.760;2023-05-01T08:40:02;66.9;57.7;
13030;PMS7003;6582;54.644;9.760;2023-05-01T08:45:02;65.6;56.7;
13030;PMS7003;6582;54.644;9.760;2023-05-01T08:50:01;65.3;55.8;
13030;PMS7003;6582;54.644;9.760;2023-05-01T08:55:01;66.8;59.1;
13030;PMS7003;6582;54.644;9.760;2023-05-01T09:00:02;67.3;59.3;
13030;PMS7003;6582;54.644;9.760;2023-05-01T09:05:02;67.2;59.6;
13030;PMS7003;6582;54.644;9.760;2023-05-01T09:10:01;63.4;57.0;
13030;PMS7003;6582;54.644;9.760;2023-05-01T09:15:01;69.2;62.7;
13030;PMS7003;6582;54.644;9.760;2023-05-01T09:20:02;67.5;59.7;
13030;PMS7003;6582;54.644;9.760;2023-05-01T09:25:01;68.8;61.4;
13030;PMS7003;6582;54.644;9.760;2023-05-01T09:30:06;71.2;65.0;
13030;PMS7003;6582;54.644;9.760;2023-05-01T09:55:11;84.0;81.4;
13030;PMS7003;6582;54.644;9.760;2023-05-01T10:00:02;85.6;84.3;
13030;PMS7003;6582;54.644;9.760;2023-05-01T10:05:02;83.9;81.3;
13030;PMS7003;6582;54.644;9.760;2023-05-01T10:25:02;90.8;90.4;
13030;PMS7003;6582;54.644;9.760;2023-05-01T10:30:02;93.6;93.2;
13030;PMS7003;6582;54.644;9.760;2023-05-01T10:35:10;94.0;93.5;
13030;PMS7003;6582;54.644;9.760;2023-05-01T10:55:38;94.2;94.2;
13030;PMS7003;6582;54.644;9.760;2023-05-01T11:15:07;96.8;96.8;
13030;PMS7003;6582;54.644;9.760;2023-05-01T11:20:01;95.9;95.9;
13030;PMS7003;6582;54.644;9.760;2023-05-01T11:25:02;96.9;96.8;
13030;PMS7003;6582;54.644;9.760;2023-05-01T11:30:06;95.1;94.8;
13030;PMS7003;6582;54.644;9.760;2023-05-01T11:35:01;93.8;93.6;
13030;PMS7003;6582;54.644;9.760;2023-05-01T11:40:02;92.3;91.9;
13030;PMS7003;6582;54.644;9.760;2023-05-01T11:45:06;92.1;91.5;
13030;PMS7003;6582;54.644;9.760;2023-05-01T11:50:01;92.0;91.3;
13030;PMS7003;6582;54.644;9.760;2023-05-01T11:55:03;92.4;92.0;
13030;PMS7003;6582;54.644;9.760;2023-05-01T12:00:01;92.8;92.3;
13030;PMS7003;6582;54.644;9.760;2023-05-01T12:05:14;94.4;94.1;
13030;PMS7003;6582;54.644;9.760;2023-05-01T12:10:01;95.6;95.4;
13030;PMS7003;6582;54.644;9.760;2023-05-01T12:15:02;96.1;95.9;
13030;PMS7003;6582;54.644;9.760;2023-05-01T12:25:01;96.5;95.7;
13030;PMS7003;6582;54.644;9.760;2023-05-01T12:30:01;99.6;98.8;
13030;PMS7003;6582;54.644;9.760;2023-05-01T12:55:03;95.8;95.8;
13030;PMS7003;6582;54.644;9.760;2023-05-01T13:00:02;101.7;101.7;
13030;PMS7003;6582;54.644;9.760;2023-05-01T13:05:08;105.7;105.7;
13030;PMS7003;6582;54.644;9.760;2023-05-01T13:10:03;105.1;104.9;
13030;PMS7003;6582;54.644;9.760;2023-05-01T13:15:02;105.9;105.6;
13030;PMS7003;6582;54.644;9.760;2023-05-01T13:20:03;108.2;107.9;
13030;PMS7003;6582;54.644;9.760;2023-05-01T13:25:14;111.7;111.4;
13030;PMS7003;6582;54.644;9.760;2023-05-01T13:30:02;113.7;113.4;
13030;PMS7003;6582;54.644;9.760;2023-05-01T13:35:01;123.8;123.6;
13030;PMS7003;6582;54.644;9.760;2023-05-01T13:40:02;131.7;131.7;
13030;PMS7003;6582;54.644;9.760;2023-05-01T13:45:06;139.8;139.4;
13030;PMS7003;6582;54.644;9.760;2023-05-01T13:50:02;148.2;147.7;
13030;PMS7003;6582;54.644;9.760;2023-05-01T13:55:06;155.2;154.8;
13030;PMS7003;6582;54.644;9.760;2023-05-01T14:00:01;152.6;152.2;
13030;PMS7003;6582;54.644;9.760;2023-05-01T14:10:11;148.5;148.4;
13030;PMS7003;6582;54.644;9.760;2023-05-01T14:15:03;140.1;140.0;
13030;PMS7003;6582;54.644;9.760;2023-05-01T14:20:01;132.8;132.6;
13030;PMS7003;6582;54.644;9.760;2023-05-01T14:25:04;127.5;127.3;
13030;PMS7003;6582;54.644;9.760;2023-05-01T14:30:04;116.0;115.6;
13030;PMS7003;6582;54.644;9.760;2023-05-01T14:35:01;109.3;108.9;
13030;PMS7003;6582;54.644;9.760;2023-05-01T14:40:01;103.4;103.0;
13030;PMS7003;6582;54.644;9.760;2023-05-01T14:45:03;96.0;95.7;
13030;PMS7003;6582;54.644;9.760;2023-05-01T14:50:02;90.8;90.4;
13030;PMS7003;6582;54.644;9.760;2023-05-01T14:55:02;89.7;89.6;
13030;PMS7003;6582;54.644;9.760;2023-05-01T15:00:02;88.3;88.2;
13030;PMS7003;6582;54.644;9.760;2023-05-01T15:05:01;90.1;90.0;
13030;PMS7003;6582;54.644;9.760;2023-05-01T15:10:02;89.2;89.2;
13030;PMS7003;6582;54.644;9.760;2023-05-01T15:15:01;90.6;90.6;
13030;PMS7003;6582;54.644;9.760;2023-05-01T15:20:02;94.2;94.2;
13030;PMS7003;6582;54.644;9.760;2023-05-01T15:25:02;94.8;94.8;
13030;PMS7003;6582;54.644;9.760;2023-05-01T15:30:06;97.7;97.7;
13030;PMS7003;6582;54.644;9.760;2023-05-01T15:35:03;106.2;106.2;
13030;PMS7003;6582;54.644;9.760;2023-05-01T15:40:06;105.5;105.5;
13030;PMS7003;6582;54.644;9.760;2023-05-01T15:45:02;104.6;104.4;
13030;PMS7003;6582;54.644;9.760;2023-05-01T15:50:08;114.2;113.8;
13030;PMS7003;6582;54.644;9.760;2023-05-01T15:55:01;119.2;118.8;
13030;PMS7003;6582;54.644;9.760;2023-05-01T16:00:03;114.9;114.5;
13030;PMS7003;6582;54.644;9.760;2023-05-01T16:05:06;128.2;127.7;
13030;PMS7003;6582;54.644;9.760;2023-05-01T16:10:12;131.6;131.1;
13030;PMS7003;6582;54.644;9.760;2023-05-01T16:15:06;124.9;124.6;
13030;PMS7003;6582;54.644;9.760;2023-05-01T16:20:06;116.0;115.5;
13030;PMS7003;6582;54.644;9.760;2023-05-01T16:25:02;121.9;121.3;
13030;PMS7003;6582;54.644;9.760;2023-05-01T16:30:03;127.2;126.6;
13030;PMS7003;6582;54.644;9.760;2023-05-01T16:35:02;135.9;135.6;
13030;PMS7003;6582;54.644;9.760;2023-05-01T16:40:07;148.2;147.9;
13030;PMS7003;6582;54.644;9.760;2023-05-01T16:45:01;161.9;161.8;
13030;PMS7003;6582;54.644;9.760;2023-05-01T16:50:03;168.4;168.4;
13030;PMS7003;6582;54.644;9.760;2023-05-01T16:55:01;159.5;159.4;
13030;PMS7003;6582;54.644;9.760;2023-05-01T17:00:07;151.2;151.1;
13030;PMS7003;6582;54.644;9.760;2023-05-01T17:05:01;144.4;144.2;
13030;PMS7003;6582;54.644;9.760;2023-05-01T17:10:07;128.5;128.2;
13030;PMS7003;6582;54.644;9.760;2023-05-01T17:15:07;114.9;114.6;
13030;PMS7003;6582;54.644;9.760;2023-05-01T17:20:03;103.8;103.2;
13030;PMS7003;6582;54.644;9.760;2023-05-01T17:25:06;97.7;97.2;
13030;PMS7003;6582;54.644;9.760;2023-05-01T17:30:03;87.0;85.6;
13030;PMS7003;6582;54.644;9.760;2023-05-01T17:35:07;85.5;83.7;
13030;PMS7003;6582;54.644;9.760;2023-05-01T17:40:04;82.3;79.7;
13030;PMS7003;6582;54.644;9.760;2023-05-01T17:45:02;82.3;79.5;
13030;PMS7003;6582;54.644;9.760;2023-05-01T17:50:08;80.5;76.7;
13030;PMS7003;6582;54.644;9.760;2023-05-01T17:55:01;80.9;76.7;
13030;PMS7003;6582;54.644;9.760;2023-05-01T18:00:05;80.9;76.3;
13030;PMS7003;6582;54.644;9.760;2023-05-01T18:05:03;80.7;75.6;
13030;PMS7003;6582;54.644;9.760;2023-05-01T18:10:03;80.3;74.4;
13030;PMS7003;6582;54.644;9.760;2023-05-01T18:15:06;80.2;74.0;
13030;PMS7003;6582;54.644;9.760;2023-05-01T18:20:03;79.8;72.8;
13030;PMS7003;6582;54.644;9.760;2023-05-01T18:25:01;79.0;70.7;
13030;PMS7003;6582;54.644;9.760;2023-05-01T18:30:03;78.0;68.5;
13030;PMS7003;6582;54.644;9.760;2023-05-01T18:35:01;76.5;65.9;
13030;PMS7003;6582;54.644;9.760;2023-05-01T18:40:02;75.3;63.8;
13030;PMS7003;6582;54.644;9.760;2023-05-01T18:45:01;74.9;63.3;
13030;PMS7003;6582;54.644;9.760;2023-05-01T18:50:03;74.5;63.1;
13030;PMS7003;6582;54.644;9.760;2023-05-01T18:55:07;74.8;63.5;
13030;PMS7003;6582;54.644;9.760;2023-05-01T19:00:02;75.6;64.1;
13030;PMS7003;6582;54.644;9.760;2023-05-01T19:05:06;73.9;62.8;
13030;PMS7003;6582;54.644;9.760;2023-05-01T19:10:03;74.4;62.8;
13030;PMS7003;6582;54.644;9.760;2023-05-01T19:15:01;74.6;62.6;
13030;PMS7003;6582;54.644;9.760;2023-05-01T19:20:02;74.8;62.4;
13030;PMS7003;6582;54.644;9.760;2023-05-01T19:25:01;75.3;63.2;
13030;PMS7003;6582;54.644;9.760;2023-05-01T19:30:03;77.6;65.3;
13030;PMS7003;6582;54.644;9.760;2023-05-01T19:35:02;77.4;65.7;
13030;PMS7003;6582;54.644;9.760;2023-05-01T19:45:01;76.8;65.4;
13030;PMS7003;6582;54.644;9.760;2023-05-01T19:50:03;72.1;61.6;
13030;PMS7003;6582;54.644;9.760;2023-05-01T19:55:02;72.4;61.3;
13030;PMS7003;6582;54.644;9.760;2023-05-01T20:00:04;72.5;61.2;
13030;PMS7003;6582;54.644;9.760;2023-05-01T20:05:01;73.1;61.6;
13030;PMS7003;6582;54.644;9.760;2023-05-01T20:10:02;74.2;63.0;
13030;PMS7003;6582;54.644;9.760;2023-05-01T20:15:01;79.7;67.5;
13030;PMS7003;6582;54.644;9.760;2023-05-01T20:20:02;80.5;68.7;
13030;PMS7003;6582;54.644;9.760;2023-05-01T20:25:01;81.0;69.2;
13030;PMS7003;6582;54.644;9.760;2023-05-01T20:30:02;82.0;70.8;
13030;PMS7003;6582;54.644;9.760;2023-05-01T20:35:01;83.3;72.4;
13030;PMS7003;6582;54.644;9.760;2023-05-01T20:40:07;84.2;73.6;
13030;PMS7003;6582;54.644;9.760;2023-05-01T20:45:01;84.7;73.7;
13030;PMS7003;6582;54.644;9.760;2023-05-01T20:50:02;85.8;74.6;
13030;PMS7003;6582;54.644;9.760;2023-05-01T20:55:01;86.2;74.7;
13030;PMS7003;6582;54.644;9.760;2023-05-01T21:00:08;86.3;75.1;
13030;PMS7003;6582;54.644;9.760;2023-05-01T21:05:07;86.0;74.4;
13030;PMS7003;6582;54.644;9.760;2023-05-01T21:10:04;86.8;76.3;
13030;PMS7003;6582;54.644;9.760;2023-05-01T21:15:07;86.5;76.2;
13030;PMS7003;6582;54.644;9.760;2023-05-01T21:20:03;85.8;75.0;
13030;PMS7003;6582;54.644;9.760;2023-05-01T21:25:01;86.5;75.2;
13030;PMS7003;6582;54.644;9.760;2023-05-01T21:30:02;87.6;76.3;
13030;PMS7003;6582;54.644;9.760;2023-05-01T21:35:07;89.4;77.7;
13030;PMS7003;6582;54.644;9.760;2023-05-01T21:40:03;89.9;77.7;
13030;PMS7003;6582;54.644;9.760;2023-05-01T21:45:05;93.1;82.8;
13030;PMS7003;6582;54.644;9.760;2023-05-01T21:50:02;92.0;80.2;
13030;PMS7003;6582;54.644;9.760;2023-05-01T21:55:02;90.0;76.5;
13030;PMS7003;6582;54.644;9.760;2023-05-01T22:00:03;86.1;71.2;
13030;PMS7003;6582;54.644;9.760;2023-05-01T22:05:01;85.4;69.9;
13030;PMS7003;6582;54.644;9.760;2023-05-01T22:10:02;82.1;63.8;
13030;PMS7003;6582;54.644;9.760;2023-05-01T22:15:01;80.9;63.4;
13030;PMS7003;6582;54.644;9.760;2023-05-01T22:20:03;80.6;63.2;
13030;PMS7003;6582;54.644;9.760;2023-05-01T22:25:02;81.2;64.2;
13030;PMS7003;6582;54.644;9.760;2023-05-01T22:30:03;80.6;64.0;
13030;PMS7003;6582;54.644;9.760;2023-05-01T22:35:01;80.4;63.7;
13030;PMS7003;6582;54.644;9.760;2023-05-01T22:40:02;80.8;63.9;
13030;PMS7003;6582;54.644;9.760;2023-05-01T22:45:01;81.0;64.2;
13030;PMS7003;6582;54.644;9.760;2023-05-01T22:50:03;83.5;67.9;
13030;PMS7003;6582;54.644;9.760;2023-05-01T22:55:01;86.0;71.7;
13030;PMS7003;6582;54.644;9.760;2023-05-01T23:00:02;92.2;80.4;
13030;PMS7003;6582;54.644;9.760;2023-05-01T23:05:01;94.0;83.2;
13030;PMS7003;6582;54.644;9.760;2023-05-01T23:10:03;94.5;84.0;
13030;PMS7003;6582;54.644;9.760;2023-05-01T23:15:01;93.6;82.5;
13030;PMS7003;6582;54.644;9.760;2023-05-01T23:20:04;91.3;78.6;
13030;PMS7003;6582;54.644;9.760;2023-05-01T23:25:03;85.3;70.3;
13030;PMS7003;6582;54.644;9.760;2023-05-01T23:30:02;85.8;70.9;
13030;PMS7003;6582;54.644;9.760;2023-05-01T23:35:04;88.8;75.2;
13030;PMS7003;6582;54.644;9.760;2023-05-01T23:45:01;92.2;81.4;
13030;PMS7003;6582;54.644;9.760;2023-05-01T23:50:03;94.7;86.3;
13030;PMS7003;6582;54.644;9.760;2023-05-01T23:55:01;95.1;88.2;
